createdAt,value
2022-10-22T00:00:55.269Z,12.95
2022-10-22T00:01:55.260Z,12.96
2022-10-22T00:02:55.269Z,12.98
2022-10-22T00:03:55.240Z,12.98
2022-10-22T00:04:55.219Z,12.98
2022-10-22T00:05:55.199Z,12.99
2022-10-22T00:06:55.189Z,12.98
2022-10-22T00:07:55.180Z,12.99
2022-10-22T00:08:55.172Z,12.99
2022-10-22T00:09:55.151Z,12.99
2022-10-22T00:10:55.136Z,12.98
2022-10-22T00:11:55.120Z,13.01
2022-10-22T00:12:55.108Z,12.99
2022-10-22T00:13:55.110Z,12.98
2022-10-22T00:14:55.089Z,12.96
2022-10-22T00:15:55.062Z,12.98
2022-10-22T00:16:55.051Z,12.96
2022-10-22T00:17:55.050Z,12.96
2022-10-22T00:18:55.049Z,12.98
2022-10-22T00:19:55.033Z,12.98
2022-10-22T00:20:54.999Z,12.99
2022-10-22T00:21:54.989Z,13.01
2022-10-22T00:22:54.970Z,13.01
2022-10-22T00:23:54.958Z,13.01
2022-10-22T00:24:54.978Z,13.01
2022-10-22T00:25:54.938Z,13.01
2022-10-22T00:26:54.928Z,13.03
2022-10-22T00:27:54.918Z,13.03
2022-10-22T00:28:54.888Z,13.01
2022-10-22T00:29:54.897Z,13.01
2022-10-22T00:30:54.857Z,12.99
2022-10-22T00:32:54.845Z,12.98
2022-10-22T00:33:54.848Z,12.96
2022-10-22T00:34:54.816Z,12.96
2022-10-22T00:35:54.798Z,12.98
2022-10-22T00:36:54.787Z,12.98
2022-10-22T00:37:54.776Z,12.98
2022-10-22T00:38:54.797Z,12.98
2022-10-22T00:39:54.747Z,12.98
2022-10-22T00:40:54.773Z,13.01
2022-10-22T00:41:54.727Z,12.99
2022-10-22T00:42:54.707Z,13.01
2022-10-22T00:43:54.698Z,12.99
2022-10-22T00:44:54.678Z,12.98
2022-10-22T00:45:54.677Z,12.99
2022-10-22T00:46:54.657Z,13.03
2022-10-22T00:47:54.651Z,13.04
2022-10-22T00:48:54.636Z,13.07
2022-10-22T00:49:54.687Z,13.09
2022-10-22T00:50:54.596Z,13.10
2022-10-22T00:51:54.588Z,13.10
2022-10-22T00:52:54.578Z,13.12
2022-10-22T00:53:54.575Z,13.10
2022-10-22T00:54:54.546Z,13.12
2022-10-22T00:55:54.543Z,13.12
2022-10-22T00:56:54.517Z,13.13
2022-10-22T00:57:54.513Z,13.12
2022-10-22T00:58:54.498Z,13.13
2022-10-22T00:59:54.485Z,13.14
2022-10-22T01:00:54.526Z,13.13
2022-10-22T01:01:54.456Z,13.13
2022-10-22T01:02:54.445Z,13.12
2022-10-22T01:03:54.437Z,13.12
2022-10-22T01:04:54.414Z,13.12
2022-10-22T01:05:54.397Z,13.10
2022-10-22T01:06:54.403Z,13.12
2022-10-22T01:07:54.379Z,13.12
2022-10-22T01:08:54.411Z,13.10
2022-10-22T01:09:54.349Z,13.10
2022-10-22T01:10:54.326Z,13.10
2022-10-22T01:11:54.328Z,13.09
2022-10-22T01:12:54.316Z,13.09
2022-10-22T01:13:54.315Z,13.07
2022-10-22T01:14:54.276Z,13.06
2022-10-22T01:15:54.265Z,13.07
2022-10-22T01:16:54.253Z,13.07
2022-10-22T01:17:54.245Z,13.09
2022-10-22T01:18:54.235Z,13.07
2022-10-22T01:19:54.213Z,13.09
2022-10-22T01:20:54.205Z,13.09
2022-10-22T01:21:54.188Z,13.07
2022-10-22T01:22:54.193Z,13.07
2022-10-22T01:23:54.165Z,13.06
2022-10-22T01:24:54.154Z,13.06
2022-10-22T01:25:54.134Z,13.04
2022-10-22T01:26:54.123Z,13.04
2022-10-22T01:27:54.125Z,13.03
2022-10-22T01:28:54.104Z,13.03
2022-10-22T01:29:54.081Z,13.01
2022-10-22T01:30:54.075Z,12.99
2022-10-22T01:31:54.045Z,12.98
2022-10-22T01:32:54.045Z,12.98
2022-10-22T01:33:54.035Z,12.98
2022-10-22T01:34:54.014Z,12.98
2022-10-22T01:35:54.006Z,12.96
2022-10-22T01:36:53.992Z,12.96
2022-10-22T01:37:53.972Z,12.96
2022-10-22T01:38:53.974Z,12.96
2022-10-22T01:39:53.934Z,12.95
2022-10-22T01:40:53.931Z,12.94
2022-10-22T01:41:53.916Z,12.92
2022-10-22T01:42:53.917Z,12.92
2022-10-22T01:43:53.897Z,12.91
2022-10-22T01:44:53.885Z,12.91
2022-10-22T01:45:53.866Z,12.92
2022-10-22T01:46:53.861Z,12.91
2022-10-22T01:47:53.843Z,12.91
2022-10-22T01:48:53.835Z,12.94
2022-10-22T01:49:53.839Z,12.92
2022-10-22T01:50:53.796Z,12.94
2022-10-22T01:51:53.777Z,12.94
2022-10-22T01:52:53.777Z,12.92
2022-10-22T01:53:53.772Z,12.94
2022-10-22T01:54:53.746Z,12.91
2022-10-22T01:55:53.725Z,12.94
2022-10-22T01:56:53.745Z,12.91
2022-10-22T01:57:53.714Z,12.92
2022-10-22T01:58:53.695Z,12.92
2022-10-22T01:59:53.675Z,12.92
2022-10-22T02:00:53.744Z,12.91
2022-10-22T02:01:53.645Z,12.88
2022-10-22T02:02:53.645Z,12.87
2022-10-22T02:03:53.628Z,12.87
2022-10-22T02:04:53.615Z,12.85
2022-10-22T02:05:53.594Z,12.84
2022-10-22T02:06:53.584Z,12.84
2022-10-22T02:07:53.574Z,12.81
2022-10-22T02:08:53.574Z,12.80
2022-10-22T02:09:53.538Z,12.80
2022-10-22T02:10:53.554Z,12.80
2022-10-22T02:11:53.593Z,12.80
2022-10-22T02:12:53.515Z,12.77
2022-10-22T02:13:53.484Z,12.77
2022-10-22T02:14:53.484Z,12.73
2022-10-22T02:15:53.456Z,12.73
2022-10-22T02:16:53.453Z,12.71
2022-10-22T02:17:53.451Z,12.67
2022-10-22T02:18:53.434Z,12.67
2022-10-22T02:19:53.405Z,12.67
2022-10-22T02:20:53.395Z,12.66
2022-10-22T02:21:53.394Z,12.66
2022-10-22T02:22:53.374Z,12.67
2022-10-22T02:23:53.363Z,12.70
2022-10-22T02:24:53.355Z,12.70
2022-10-22T02:25:53.338Z,12.71
2022-10-22T02:26:53.324Z,12.71
2022-10-22T02:27:53.314Z,12.73
2022-10-22T02:28:53.285Z,12.71
2022-10-22T02:29:53.266Z,12.71
2022-10-22T02:30:53.269Z,12.71
2022-10-22T02:31:53.265Z,12.70
2022-10-22T02:32:53.244Z,12.69
2022-10-22T02:33:53.229Z,12.67
2022-10-22T02:34:53.215Z,12.63
2022-10-22T02:35:53.195Z,12.63
2022-10-22T02:36:53.185Z,12.62
2022-10-22T02:37:53.182Z,12.58
2022-10-22T02:38:53.174Z,12.58
2022-10-22T02:39:53.143Z,12.56
2022-10-22T02:40:53.134Z,12.54
2022-10-22T02:41:53.124Z,12.52
2022-10-22T02:42:53.124Z,12.52
2022-10-22T02:43:53.107Z,12.52
2022-10-22T02:44:53.084Z,12.54
2022-10-22T02:45:53.085Z,12.52
2022-10-22T02:46:53.057Z,12.54
2022-10-22T02:47:53.062Z,12.52
2022-10-22T02:48:53.044Z,12.51
2022-10-22T02:49:53.021Z,12.51
2022-10-22T02:50:53.006Z,12.48
2022-10-22T02:51:52.994Z,12.49
2022-10-22T02:52:52.984Z,12.48
2022-10-22T02:53:52.955Z,12.46
2022-10-22T02:54:52.943Z,12.46
2022-10-22T02:55:52.923Z,12.44
2022-10-22T02:56:52.936Z,12.46
2022-10-22T02:57:52.906Z,12.44
2022-10-22T02:58:52.894Z,12.46
2022-10-22T02:59:52.880Z,12.44
2022-10-22T03:00:52.914Z,12.44
2022-10-22T03:01:52.853Z,12.43
2022-10-22T03:02:52.844Z,12.43
2022-10-22T03:03:52.823Z,12.41
2022-10-22T03:04:52.812Z,12.41
2022-10-22T03:05:52.793Z,12.38
2022-10-22T03:06:52.814Z,12.38
2022-10-22T03:07:52.774Z,12.38
2022-10-22T03:08:52.788Z,12.38
2022-10-22T03:09:52.741Z,12.37
2022-10-22T03:10:52.732Z,12.37
2022-10-22T03:11:52.723Z,12.37
2022-10-22T03:12:52.702Z,12.37
2022-10-22T03:13:52.721Z,12.37
2022-10-22T03:14:52.684Z,12.37
2022-10-22T03:15:52.664Z,12.36
2022-10-22T03:16:52.671Z,12.36
2022-10-22T03:17:52.632Z,12.36
2022-10-22T03:18:52.631Z,12.33
2022-10-22T03:19:52.610Z,12.33
2022-10-22T03:20:52.603Z,12.31
2022-10-22T03:21:52.590Z,12.31
2022-10-22T03:22:52.573Z,12.33
2022-10-22T03:23:52.561Z,12.30
2022-10-22T03:24:52.542Z,12.30
2022-10-22T03:25:52.569Z,12.30
2022-10-22T03:26:52.531Z,12.29
2022-10-22T03:27:52.547Z,12.29
2022-10-22T03:28:52.501Z,12.26
2022-10-22T03:29:52.478Z,12.26
2022-10-22T03:30:52.471Z,12.29
2022-10-22T03:31:52.461Z,12.26
2022-10-22T03:32:52.440Z,12.30
2022-10-22T03:33:52.420Z,12.29
2022-10-22T03:34:52.463Z,12.29
2022-10-22T03:35:52.400Z,12.31
2022-10-22T03:36:52.403Z,12.33
2022-10-22T03:37:52.370Z,12.36
2022-10-22T03:38:52.364Z,12.37
2022-10-22T03:39:52.340Z,12.40
2022-10-22T03:40:52.339Z,12.43
2022-10-22T03:41:52.334Z,12.43
2022-10-22T03:42:52.320Z,12.41
2022-10-22T03:43:52.298Z,12.44
2022-10-22T03:44:52.282Z,12.46
2022-10-22T03:45:52.270Z,12.48
2022-10-22T03:46:52.252Z,12.49
2022-10-22T03:47:52.229Z,12.51
2022-10-22T03:48:52.229Z,12.55
2022-10-22T03:49:52.219Z,12.54
2022-10-22T03:50:52.209Z,12.55
2022-10-22T03:51:52.191Z,12.55
2022-10-22T03:52:52.180Z,12.58
2022-10-22T03:53:52.149Z,12.58
2022-10-22T03:54:52.149Z,12.59
2022-10-22T03:55:52.129Z,12.62
2022-10-22T03:56:52.128Z,12.62
2022-10-22T03:57:52.108Z,12.61
2022-10-22T03:58:52.089Z,12.61
2022-10-22T03:59:52.076Z,12.62
2022-10-22T04:00:52.142Z,12.63
2022-10-22T04:01:52.049Z,12.62
2022-10-22T04:02:52.038Z,12.63
2022-10-22T04:03:52.029Z,12.63
2022-10-22T04:04:52.008Z,12.63
2022-10-22T04:05:52.009Z,12.62
2022-10-22T04:06:51.989Z,12.66
2022-10-22T04:07:51.970Z,12.66
2022-10-22T04:08:52.004Z,12.66
2022-10-22T04:09:51.939Z,12.69
2022-10-22T04:10:51.948Z,12.66
2022-10-22T04:11:51.918Z,12.69
2022-10-22T04:12:51.907Z,12.69
2022-10-22T04:13:51.887Z,12.70
2022-10-22T04:14:51.881Z,12.69
2022-10-22T04:15:51.895Z,12.67
2022-10-22T04:16:51.855Z,12.66
2022-10-22T04:17:51.837Z,12.66
2022-10-22T04:18:51.827Z,12.63
2022-10-22T04:19:51.808Z,12.63
2022-10-22T04:20:51.808Z,12.62
2022-10-22T04:21:51.779Z,12.62
2022-10-22T04:22:51.766Z,12.61
2022-10-22T04:23:51.757Z,12.61
2022-10-22T04:25:51.738Z,12.58
2022-10-22T04:26:51.727Z,12.56
2022-10-22T04:27:51.697Z,12.55
2022-10-22T04:28:51.688Z,12.52
2022-10-22T04:29:51.677Z,12.51
2022-10-22T04:30:51.664Z,12.52
2022-10-22T04:31:51.655Z,12.52
2022-10-22T04:32:51.638Z,12.51
2022-10-22T04:33:51.637Z,12.51
2022-10-22T04:34:51.656Z,12.49
2022-10-22T04:35:51.596Z,12.51
2022-10-22T04:36:51.586Z,12.49
2022-10-22T04:37:51.567Z,12.49
2022-10-22T04:38:51.566Z,12.48
2022-10-22T04:39:51.555Z,12.46
2022-10-22T04:40:51.534Z,12.46
2022-10-22T04:41:51.517Z,12.46
2022-10-22T04:42:51.505Z,12.46
2022-10-22T04:43:51.496Z,12.46
2022-10-22T04:44:51.488Z,12.46
2022-10-22T04:45:51.529Z,12.48
2022-10-22T04:46:51.455Z,12.44
2022-10-22T04:47:51.447Z,12.46
2022-10-22T04:48:51.436Z,12.44
2022-10-22T04:49:51.415Z,12.46
2022-10-22T04:50:51.396Z,12.44
2022-10-22T04:51:51.376Z,12.48
2022-10-22T04:52:51.400Z,12.46
2022-10-22T04:53:51.356Z,12.46
2022-10-22T04:54:51.346Z,12.49
2022-10-22T04:55:51.335Z,12.48
2022-10-22T04:56:51.325Z,12.49
2022-10-22T04:57:51.296Z,12.49
2022-10-22T04:58:51.285Z,12.49
2022-10-22T04:59:51.287Z,12.51
2022-10-22T05:00:51.319Z,12.51
2022-10-22T05:01:51.254Z,12.49
2022-10-22T05:02:51.237Z,12.49
2022-10-22T05:03:51.223Z,12.49
2022-10-22T05:04:51.226Z,12.48
2022-10-22T05:05:51.196Z,12.49
2022-10-22T05:06:51.196Z,12.48
2022-10-22T05:07:51.165Z,12.48
2022-10-22T05:08:51.203Z,12.48
2022-10-22T05:09:51.144Z,12.48
2022-10-22T05:10:51.132Z,12.46
2022-10-22T05:11:51.116Z,12.48
2022-10-22T05:12:51.105Z,12.46
2022-10-22T05:13:51.102Z,12.48
2022-10-22T05:14:51.084Z,12.48
2022-10-22T05:15:51.063Z,12.46
2022-10-22T05:16:51.046Z,12.46
2022-10-22T05:17:51.032Z,12.46
2022-10-22T05:18:51.024Z,12.46
2022-10-22T05:19:51.015Z,12.46
2022-10-22T05:20:51.004Z,12.46
2022-10-22T05:21:50.976Z,12.46
2022-10-22T05:22:50.970Z,12.49
2022-10-22T05:23:50.954Z,12.48
2022-10-22T05:24:50.963Z,12.49
2022-10-22T05:25:50.927Z,12.51
2022-10-22T05:26:50.918Z,12.52
2022-10-22T05:27:50.903Z,12.55
2022-10-22T05:28:50.893Z,12.54
2022-10-22T05:29:50.883Z,12.54
2022-10-22T05:30:50.871Z,12.51
2022-10-22T05:31:50.843Z,12.48
2022-10-22T05:32:50.833Z,12.48
2022-10-22T05:33:50.821Z,12.48
2022-10-22T05:34:50.824Z,12.48
2022-10-22T05:35:50.813Z,12.48
2022-10-22T05:36:50.783Z,12.48
2022-10-22T05:37:50.819Z,12.48
2022-10-22T05:38:50.765Z,12.44
2022-10-22T05:40:01.659Z,12.44
2022-10-22T05:40:51.727Z,12.43
2022-10-22T05:41:50.727Z,12.44
2022-10-22T05:42:50.723Z,12.44
2022-10-22T05:43:50.692Z,12.43
2022-10-22T05:44:50.683Z,12.43
2022-10-22T05:45:50.672Z,12.44
2022-10-22T05:46:50.651Z,12.43
2022-10-22T05:47:50.632Z,12.44
2022-10-22T05:48:50.626Z,12.46
2022-10-22T05:49:50.631Z,12.46
2022-10-22T05:50:50.598Z,12.46
2022-10-22T05:51:50.596Z,12.48
2022-10-22T05:52:50.561Z,12.49
2022-10-22T05:53:50.553Z,12.52
2022-10-22T05:54:50.541Z,12.55
2022-10-22T05:55:50.525Z,12.58
2022-10-22T05:56:50.538Z,12.59
2022-10-22T05:57:50.514Z,12.58
2022-10-22T05:58:50.589Z,12.58
2022-10-22T05:59:50.502Z,12.58
2022-10-22T06:00:50.461Z,12.58
2022-10-22T06:01:50.507Z,12.58
2022-10-22T06:02:50.459Z,12.58
2022-10-22T06:03:50.432Z,12.59
2022-10-22T06:04:50.413Z,12.59
2022-10-22T06:05:50.401Z,12.59
2022-10-22T06:06:50.386Z,12.61
2022-10-22T06:07:50.372Z,12.62
2022-10-22T06:08:50.389Z,12.63
2022-10-22T06:09:50.379Z,12.63
2022-10-22T06:10:50.340Z,12.67
2022-10-22T06:11:50.317Z,12.67
2022-10-22T06:12:50.302Z,12.66
2022-10-22T06:13:50.299Z,12.67
2022-10-22T06:14:50.280Z,12.69
2022-10-22T06:15:50.261Z,12.67
2022-10-22T06:16:50.240Z,12.69
2022-10-22T06:17:50.260Z,12.69
2022-10-22T06:18:50.219Z,12.69
2022-10-22T06:19:50.220Z,12.70
2022-10-22T06:20:50.191Z,12.70
2022-10-22T06:21:50.181Z,12.71
2022-10-22T06:22:50.161Z,12.73
2022-10-22T06:23:50.150Z,12.73
2022-10-22T06:24:50.150Z,12.73
2022-10-22T06:25:50.132Z,12.74
2022-10-22T06:26:50.114Z,12.76
2022-10-22T06:27:50.108Z,12.76
2022-10-22T06:28:50.087Z,12.77
2022-10-22T06:29:50.081Z,12.80
2022-10-22T06:30:50.092Z,12.79
2022-10-22T06:31:50.082Z,12.80
2022-10-22T06:32:50.039Z,12.81
2022-10-22T06:33:50.022Z,12.84
2022-10-22T06:34:50.029Z,12.84
2022-10-22T06:35:49.995Z,12.87
2022-10-22T06:36:49.969Z,12.87
2022-10-22T06:37:49.969Z,12.85
2022-10-22T06:38:49.958Z,12.87
2022-10-22T06:39:49.948Z,12.89
2022-10-22T06:40:49.929Z,12.89
2022-10-22T06:41:49.923Z,12.88
2022-10-22T06:42:49.900Z,12.89
2022-10-22T06:43:49.888Z,12.92
2022-10-22T06:44:49.926Z,12.92
2022-10-22T06:45:49.923Z,12.92
2022-10-22T06:46:49.847Z,12.95
2022-10-22T06:47:49.828Z,12.96
2022-10-22T06:48:49.826Z,12.98
2022-10-22T06:49:49.818Z,12.98
2022-10-22T06:50:49.788Z,13.01
2022-10-22T06:51:49.788Z,12.99
2022-10-22T06:52:49.774Z,13.03
2022-10-22T06:53:49.765Z,13.03
2022-10-22T06:54:49.748Z,13.04
2022-10-22T06:55:49.736Z,13.06
2022-10-22T06:56:49.709Z,13.07
2022-10-22T06:57:49.708Z,13.07
2022-10-22T06:58:49.686Z,13.07
2022-10-22T06:59:49.707Z,13.10
2022-10-22T07:00:49.658Z,13.14
2022-10-22T07:01:49.752Z,13.14
2022-10-22T07:02:49.627Z,13.14
2022-10-22T07:03:49.692Z,13.16
2022-10-22T07:04:49.659Z,13.17
2022-10-22T07:05:49.587Z,13.24
2022-10-22T07:06:49.603Z,13.27
2022-10-22T07:07:49.568Z,13.29
2022-10-22T07:08:49.588Z,13.32
2022-10-22T07:09:51.346Z,13.35
2022-10-22T07:10:49.525Z,13.38
2022-10-22T07:11:49.506Z,13.43
2022-10-22T07:12:49.496Z,13.41
2022-10-22T07:13:49.518Z,13.41
2022-10-22T07:14:49.469Z,13.43
2022-10-22T07:15:49.456Z,13.44
2022-10-22T07:16:49.505Z,13.47
2022-10-22T07:17:49.437Z,13.51
2022-10-22T07:18:49.418Z,13.53
2022-10-22T07:19:51.250Z,13.55
2022-10-22T07:20:49.396Z,13.59
2022-10-22T07:21:49.379Z,13.59
2022-10-22T07:22:49.356Z,13.63
2022-10-22T07:23:49.355Z,13.66
2022-10-22T07:24:49.336Z,13.68
2022-10-22T07:25:49.349Z,13.69
2022-10-22T07:26:49.308Z,13.73
2022-10-22T07:27:49.307Z,13.75
2022-10-22T07:28:49.288Z,13.79
2022-10-22T07:29:49.277Z,13.81
2022-10-22T07:30:49.255Z,13.86
2022-10-22T07:31:49.249Z,13.88
2022-10-22T07:32:49.224Z,13.90
2022-10-22T07:33:49.226Z,13.91
2022-10-22T07:34:49.205Z,13.93
2022-10-22T07:35:49.195Z,13.96
2022-10-22T07:36:49.175Z,13.98
2022-10-22T07:37:49.166Z,13.98
2022-10-22T07:38:49.154Z,14.01
2022-10-22T07:39:49.137Z,14.04
2022-10-22T07:40:49.114Z,14.06
2022-10-22T07:41:49.106Z,14.08
2022-10-22T07:42:49.106Z,14.11
2022-10-22T07:43:49.085Z,14.12
2022-10-22T07:44:49.071Z,14.16
2022-10-22T07:45:49.054Z,14.17
2022-10-22T07:46:49.202Z,14.19
2022-10-22T07:47:49.031Z,14.20
2022-10-22T07:48:49.017Z,14.19
2022-10-22T07:49:49.005Z,14.20
2022-10-22T07:50:48.988Z,14.19
2022-10-22T07:51:48.984Z,14.19
2022-10-22T07:52:48.955Z,14.19
2022-10-22T07:53:48.959Z,14.19
2022-10-22T07:54:48.926Z,14.20
2022-10-22T07:55:48.927Z,14.19
2022-10-22T07:56:48.916Z,14.19
2022-10-22T07:57:48.893Z,14.21
2022-10-22T07:58:48.938Z,14.23
2022-10-22T07:59:48.866Z,14.24
2022-10-22T08:00:48.853Z,14.23
2022-10-22T08:01:48.843Z,14.26
2022-10-22T08:02:48.824Z,14.27
2022-10-22T08:03:48.824Z,14.27
2022-10-22T08:04:48.813Z,14.29
2022-10-22T08:05:48.783Z,14.30
2022-10-22T08:06:48.765Z,14.30
2022-10-22T08:07:48.776Z,14.34
2022-10-22T08:08:48.847Z,14.34
2022-10-22T08:09:48.733Z,14.35
2022-10-22T08:10:48.713Z,14.36
2022-10-22T08:11:48.703Z,14.35
2022-10-22T08:12:48.693Z,14.36
2022-10-22T08:13:48.677Z,14.35
2022-10-22T08:14:48.673Z,14.36
2022-10-22T08:15:49.737Z,14.35
2022-10-22T08:16:48.644Z,14.35
2022-10-22T08:17:48.633Z,14.36
2022-10-22T08:18:48.602Z,14.35
2022-10-22T08:19:48.592Z,14.35
2022-10-22T08:20:48.579Z,14.35
2022-10-22T08:21:48.593Z,14.36
2022-10-22T08:22:48.570Z,14.38
2022-10-22T08:23:48.543Z,14.41
2022-10-22T08:24:48.532Z,14.44
2022-10-22T08:25:48.512Z,14.44
2022-10-22T08:26:48.503Z,14.45
2022-10-22T08:27:48.514Z,14.48
2022-10-22T08:28:48.479Z,14.52
2022-10-22T08:29:48.460Z,14.53
2022-10-22T08:30:48.442Z,14.59
2022-10-22T08:31:48.448Z,14.60
2022-10-22T08:32:50.434Z,14.66
2022-10-22T08:33:48.421Z,14.71
2022-10-22T08:34:48.382Z,14.78
2022-10-22T08:35:48.392Z,14.82
2022-10-22T08:36:48.370Z,14.86
2022-10-22T08:37:48.351Z,14.93
2022-10-22T08:38:48.341Z,14.95
2022-10-22T08:39:48.322Z,15.01
2022-10-22T08:41:48.361Z,15.05
2022-10-22T08:42:48.281Z,15.07
2022-10-22T08:43:48.272Z,15.11
2022-10-22T08:44:48.251Z,15.15
2022-10-22T08:45:48.241Z,15.16
2022-10-22T08:46:48.261Z,15.20
2022-10-22T08:47:48.211Z,15.20
2022-10-22T08:48:48.201Z,15.25
2022-10-22T08:49:48.191Z,15.25
2022-10-22T08:50:48.171Z,15.28
2022-10-22T08:51:48.171Z,15.30
2022-10-22T08:52:48.155Z,15.31
2022-10-22T08:53:48.133Z,15.34
2022-10-22T08:54:48.119Z,15.34
2022-10-22T08:55:48.110Z,15.37
2022-10-22T08:56:48.100Z,15.38
2022-10-22T08:57:51.374Z,15.40
2022-10-22T08:58:48.061Z,15.41
2022-10-22T08:59:48.063Z,15.38
2022-10-22T09:00:48.041Z,15.38
2022-10-22T09:01:48.031Z,15.34
2022-10-22T09:02:48.010Z,15.34
2022-10-22T09:03:48.000Z,15.35
2022-10-22T09:04:47.982Z,15.38
2022-10-22T09:05:48.006Z,15.43
2022-10-22T09:06:50.752Z,15.48
2022-10-22T09:07:48.947Z,15.48
2022-10-22T09:08:47.995Z,15.51
2022-10-22T09:09:47.921Z,15.51
2022-10-22T09:10:47.920Z,15.51
2022-10-22T09:11:47.900Z,15.48
2022-10-22T09:12:47.880Z,15.48
2022-10-22T09:13:47.862Z,15.48
2022-10-22T09:14:47.854Z,15.49
2022-10-22T09:15:47.840Z,15.51
2022-10-22T09:16:47.832Z,15.55
2022-10-22T09:17:47.800Z,15.59
2022-10-22T09:18:47.800Z,15.64
2022-10-22T09:19:47.790Z,15.70
2022-10-22T09:20:47.769Z,15.74
2022-10-22T09:21:47.769Z,15.77
2022-10-22T09:22:47.742Z,15.80
2022-10-22T09:23:47.729Z,15.86
2022-10-22T09:24:47.719Z,15.89
2022-10-22T09:25:47.709Z,15.95
2022-10-22T09:26:47.709Z,15.99
2022-10-22T09:27:47.684Z,16.04
2022-10-22T09:28:47.665Z,16.10
2022-10-22T09:29:47.650Z,16.13
2022-10-22T09:30:47.673Z,16.17
2022-10-22T09:31:47.656Z,16.23
2022-10-22T09:32:47.609Z,16.26
2022-10-22T09:33:47.599Z,16.33
2022-10-22T09:34:47.579Z,16.42
2022-10-22T09:35:47.569Z,16.52
2022-10-22T09:36:47.561Z,16.63
2022-10-22T09:37:47.550Z,16.75
2022-10-22T09:38:47.535Z,16.90
2022-10-22T09:39:47.529Z,17.06
2022-10-22T09:40:47.501Z,17.25
2022-10-22T09:41:47.499Z,17.40
2022-10-22T09:42:47.478Z,17.55
2022-10-22T09:43:47.468Z,17.81
2022-10-22T09:44:48.450Z,17.99
2022-10-22T09:45:47.444Z,18.19
2022-10-22T09:46:47.436Z,18.59
2022-10-22T09:48:01.517Z,18.97
2022-10-22T09:48:48.389Z,19.38
2022-10-22T09:49:47.380Z,19.64
2022-10-22T09:50:47.370Z,19.70
2022-10-22T09:51:47.389Z,19.79
2022-10-22T09:52:47.338Z,19.82
2022-10-22T09:53:47.339Z,19.82
2022-10-22T09:54:47.320Z,19.85
2022-10-22T09:55:47.356Z,19.94
2022-10-22T09:56:47.299Z,19.90
2022-10-22T09:57:47.512Z,19.83
2022-10-22T09:58:47.270Z,19.76
2022-10-22T09:59:47.250Z,19.75
2022-10-22T10:00:47.303Z,19.83
2022-10-22T10:01:47.218Z,20.10
2022-10-22T10:02:47.241Z,20.34
2022-10-22T10:03:47.191Z,20.57
2022-10-22T10:04:47.190Z,20.76
2022-10-22T10:05:47.178Z,20.90
2022-10-22T10:06:47.151Z,21.03
2022-10-22T10:07:47.142Z,21.21
2022-10-22T10:08:47.199Z,21.26
2022-10-22T10:09:47.119Z,21.33
2022-10-22T10:10:47.108Z,21.42
2022-10-22T10:11:47.091Z,21.43
2022-10-22T10:13:47.057Z,21.58
2022-10-22T10:14:47.050Z,21.64
2022-10-22T10:15:47.050Z,21.61
2022-10-22T10:16:47.030Z,21.55
2022-10-22T10:17:47.008Z,21.59
2022-10-22T10:18:47.008Z,21.64
2022-10-22T10:19:46.980Z,21.67
2022-10-22T10:20:46.981Z,21.70
2022-10-22T10:21:46.969Z,21.75
2022-10-22T10:22:46.959Z,21.81
2022-10-22T10:23:47.104Z,21.74
2022-10-22T10:24:46.931Z,21.75
2022-10-22T10:25:46.913Z,21.71
2022-10-22T10:26:46.890Z,21.66
2022-10-22T10:27:46.872Z,21.58
2022-10-22T10:28:46.860Z,21.48
2022-10-22T10:29:46.850Z,21.38
2022-10-22T10:30:46.850Z,21.37
2022-10-22T10:31:46.828Z,21.42
2022-10-22T10:32:46.800Z,21.51
2022-10-22T10:33:46.802Z,21.58
2022-10-22T10:34:46.793Z,21.64
2022-10-22T10:35:46.780Z,21.68
2022-10-22T10:36:46.761Z,21.73
2022-10-22T10:37:46.789Z,21.74
2022-10-22T10:38:46.731Z,21.79
2022-10-22T10:39:46.720Z,21.83
2022-10-22T10:40:46.712Z,21.89
2022-10-22T10:41:46.698Z,21.86
2022-10-22T10:42:46.680Z,21.91
2022-10-22T10:43:46.651Z,21.96
2022-10-22T10:44:46.663Z,21.99
2022-10-22T10:45:46.634Z,21.99
2022-10-22T10:46:46.652Z,21.99
2022-10-22T10:47:46.611Z,21.99
2022-10-22T10:48:46.601Z,21.98
2022-10-22T10:49:46.594Z,22.02
2022-10-22T10:50:46.570Z,22.05
2022-10-22T10:51:46.564Z,22.08
2022-10-22T10:52:46.560Z,22.08
2022-10-22T10:53:46.521Z,22.09
2022-10-22T10:54:46.538Z,22.12
2022-10-22T10:55:46.512Z,22.15
2022-10-22T10:56:46.486Z,22.14
2022-10-22T10:57:46.474Z,22.17
2022-10-22T10:58:46.472Z,22.19
2022-10-22T10:59:46.462Z,22.19
2022-10-22T11:00:46.441Z,22.17
2022-10-22T11:01:46.458Z,22.19
2022-10-22T11:02:46.472Z,22.23
2022-10-22T11:03:46.390Z,22.26
2022-10-22T11:04:46.400Z,22.30
2022-10-22T11:05:46.382Z,22.35
2022-10-22T11:06:46.364Z,22.38
2022-10-22T11:07:47.998Z,22.44
2022-10-22T11:08:46.377Z,22.46
2022-10-22T11:09:46.327Z,22.46
2022-10-22T11:10:46.302Z,22.45
2022-10-22T11:11:46.293Z,22.48
2022-10-22T11:12:46.283Z,22.48
2022-10-22T11:13:46.274Z,22.51
2022-10-22T11:14:46.255Z,22.52
2022-10-22T11:15:46.235Z,22.54
2022-10-22T11:16:46.234Z,22.56
2022-10-22T11:17:46.203Z,22.57
2022-10-22T11:18:46.211Z,22.60
2022-10-22T11:19:57.843Z,22.61
2022-10-22T11:20:47.176Z,22.63
2022-10-22T11:21:46.156Z,22.66
2022-10-22T11:23:06.739Z,22.70
2022-10-22T11:23:47.135Z,22.75
2022-10-22T11:24:46.148Z,22.76
2022-10-22T11:25:46.106Z,22.78
2022-10-22T11:26:46.096Z,22.81
2022-10-22T11:27:46.113Z,22.79
2022-10-22T11:28:46.075Z,22.79
2022-10-22T11:29:46.071Z,22.78
2022-10-22T11:30:46.046Z,22.79
2022-10-22T11:31:46.027Z,22.82
2022-10-22T11:32:46.015Z,22.82
2022-10-22T11:33:46.016Z,22.82
2022-10-22T11:34:45.985Z,22.84
2022-10-22T11:35:45.966Z,22.85
2022-10-22T11:36:45.966Z,22.85
2022-10-22T11:37:45.947Z,22.86
2022-10-22T11:38:45.945Z,22.88
2022-10-22T11:39:45.917Z,22.86
2022-10-22T11:40:45.912Z,22.85
2022-10-22T11:41:45.886Z,22.86
2022-10-22T11:42:45.890Z,22.89
2022-10-22T11:43:45.897Z,22.88
2022-10-22T11:44:45.897Z,22.86
2022-10-22T11:45:45.836Z,22.89
2022-10-22T11:46:45.825Z,22.89
2022-10-22T11:47:45.825Z,22.91
2022-10-22T11:48:45.808Z,22.91
2022-10-22T11:49:45.785Z,22.91
2022-10-22T11:50:45.766Z,22.91
2022-10-22T11:51:45.766Z,22.89
2022-10-22T11:52:45.746Z,22.86
2022-10-22T11:53:45.739Z,22.86
2022-10-22T11:54:45.716Z,22.88
2022-10-22T11:55:46.033Z,22.85
2022-10-22T11:56:45.694Z,22.82
2022-10-22T11:57:45.688Z,22.81
2022-10-22T11:58:46.396Z,22.81
2022-10-22T11:59:45.647Z,22.81
2022-10-22T12:00:45.636Z,22.78
2022-10-22T12:01:45.637Z,22.79
2022-10-22T12:02:45.680Z,22.79
2022-10-22T12:03:45.608Z,22.79
2022-10-22T12:04:45.617Z,22.75
2022-10-22T12:05:45.571Z,22.69
2022-10-22T12:06:45.566Z,22.64
2022-10-22T12:07:45.556Z,22.61
2022-10-22T12:08:45.604Z,22.60
2022-10-22T12:09:45.534Z,22.60
2022-10-22T12:10:45.518Z,22.59
2022-10-22T12:11:45.488Z,22.59
2022-10-22T12:12:45.477Z,22.54
2022-10-22T12:13:45.492Z,22.48
2022-10-22T12:14:45.478Z,22.35
2022-10-22T12:15:45.439Z,22.24
2022-10-22T12:16:55.636Z,22.12
2022-10-22T12:17:46.427Z,21.96
2022-10-22T12:18:45.411Z,21.83
2022-10-22T12:19:45.378Z,21.75
2022-10-22T12:20:45.378Z,21.71
2022-10-22T12:21:45.356Z,21.61
2022-10-22T12:22:45.350Z,21.52
2022-10-22T12:23:45.340Z,21.56
2022-10-22T12:24:45.331Z,21.58
2022-10-22T12:25:45.299Z,21.55
2022-10-22T12:26:45.307Z,21.49
2022-10-22T12:27:45.282Z,21.53
2022-10-22T12:28:45.280Z,21.56
2022-10-22T12:29:45.249Z,21.63
2022-10-22T12:30:45.240Z,21.64
2022-10-22T12:31:45.222Z,21.63
2022-10-22T12:32:45.227Z,21.56
2022-10-22T12:33:45.199Z,21.53
2022-10-22T12:34:45.215Z,21.46
2022-10-22T12:35:45.195Z,21.42
2022-10-22T12:36:45.159Z,21.43
2022-10-22T12:37:45.349Z,21.40
2022-10-22T12:38:45.131Z,21.37
2022-10-22T12:39:45.142Z,21.43
2022-10-22T12:40:47.679Z,21.51
2022-10-22T12:41:45.100Z,21.55
2022-10-22T12:42:45.091Z,21.61
2022-10-22T12:43:45.069Z,21.67
2022-10-22T12:44:45.091Z,21.70
2022-10-22T12:45:45.047Z,21.74
2022-10-22T12:46:45.021Z,21.81
2022-10-22T12:47:45.067Z,21.83
2022-10-22T12:48:45.004Z,21.89
2022-10-22T12:49:44.993Z,21.94
2022-10-22T12:50:44.975Z,21.98
2022-10-22T12:51:44.961Z,22.02
2022-10-22T12:52:44.967Z,22.05
2022-10-22T12:53:44.931Z,22.08
2022-10-22T12:54:44.921Z,22.09
2022-10-22T12:55:44.909Z,22.11
2022-10-22T12:56:44.891Z,22.14